createdAt,value
2023-04-08T00:02:25.026Z,10.60
2023-04-08T00:04:53.181Z,10.60
2023-04-08T00:07:21.391Z,10.60
2023-04-08T00:09:51.364Z,10.60
2023-04-08T00:12:19.624Z,10.60
2023-04-08T00:14:48.142Z,10.50
2023-04-08T00:17:16.781Z,10.50
2023-04-08T00:19:45.462Z,10.50
2023-04-08T00:22:13.764Z,10.50
2023-04-08T00:24:42.378Z,10.40
2023-04-08T00:27:12.347Z,10.40
2023-04-08T00:29:40.459Z,10.30
2023-04-08T00:32:08.978Z,10.30
2023-04-08T00:34:37.248Z,10.30
2023-04-08T00:37:06.139Z,10.20
2023-04-08T00:39:34.693Z,10.20
2023-04-08T00:42:02.896Z,10.20
2023-04-08T00:44:32.866Z,10.10
2023-04-08T00:47:01.773Z,10.10
2023-04-08T00:49:29.868Z,10.10
2023-04-08T00:51:57.941Z,10.10
2023-04-08T00:54:27.014Z,10.00
2023-04-08T00:56:55.151Z,10.00
2023-04-08T00:59:23.712Z,10.00
2023-04-08T01:02:01.114Z,10.00
2023-04-08T01:04:34.570Z,10.00
2023-04-08T01:07:09.803Z,9.90
2023-04-08T01:09:40.893Z,9.90
2023-04-08T01:12:14.539Z,9.90
2023-04-08T01:14:47.154Z,9.90
2023-04-08T01:17:19.753Z,9.80
2023-04-08T01:19:48.561Z,9.80
2023-04-08T01:22:28.126Z,9.80
2023-04-08T01:25:02.843Z,9.80
2023-04-08T01:27:34.161Z,9.80
2023-04-08T01:30:04.825Z,9.80
2023-04-08T01:32:35.235Z,9.70
2023-04-08T01:35:04.643Z,9.70
2023-04-08T01:37:34.051Z,9.70
2023-04-08T01:40:04.113Z,9.70
2023-04-08T01:42:35.241Z,9.70
2023-04-08T01:45:05.025Z,9.70
2023-04-08T01:47:34.407Z,9.70
2023-04-08T01:50:03.894Z,9.70
2023-04-08T01:52:34.321Z,9.70
2023-04-08T01:55:02.477Z,9.70
2023-04-08T01:57:36.727Z,9.70
2023-04-08T02:00:10.051Z,9.70
2023-04-08T02:02:40.235Z,9.80
2023-04-08T02:05:09.982Z,9.80
2023-04-08T02:07:38.512Z,9.80
2023-04-08T02:10:07.726Z,9.80
2023-04-08T02:12:37.863Z,9.80
2023-04-08T02:15:07.438Z,9.80
2023-04-08T02:17:44.755Z,9.80
2023-04-08T02:20:18.430Z,9.80
2023-04-08T02:22:51.298Z,9.90
2023-04-08T02:25:24.744Z,9.90
2023-04-08T02:27:56.277Z,9.90
2023-04-08T02:30:26.547Z,9.90
2023-04-08T02:32:56.337Z,9.90
2023-04-08T02:35:24.906Z,9.90
2023-04-08T02:37:53.762Z,9.90
2023-04-08T02:40:26.417Z,9.90
2023-04-08T02:42:56.949Z,9.90
2023-04-08T02:45:29.085Z,9.90
2023-04-08T02:47:57.681Z,9.90
2023-04-08T02:50:26.438Z,9.90
2023-04-08T02:52:54.968Z,9.90
2023-04-08T02:55:23.024Z,9.90
2023-04-08T02:57:51.585Z,9.90
2023-04-08T03:00:21.189Z,9.90
2023-04-08T03:02:49.915Z,9.90
2023-04-08T03:05:18.112Z,9.90
2023-04-08T03:07:46.656Z,9.90
2023-04-08T03:10:14.732Z,9.90
2023-04-08T03:12:43.268Z,9.90
2023-04-08T03:15:11.735Z,9.90
2023-04-08T03:17:41.454Z,9.90
2023-04-08T03:20:10.742Z,11.40
2023-04-08T03:22:38.880Z,9.90
2023-04-08T03:25:08.364Z,9.80
2023-04-08T03:27:36.417Z,9.80
2023-04-08T03:30:05.204Z,9.80
2023-04-08T03:32:34.245Z,9.80
2023-04-08T03:35:04.355Z,9.80
2023-04-08T03:37:32.433Z,9.80
2023-04-08T03:40:01.030Z,9.70
2023-04-08T03:42:29.101Z,9.70
2023-04-08T03:44:57.363Z,9.70
2023-04-08T03:47:25.440Z,9.60
2023-04-08T03:49:54.613Z,9.60
2023-04-08T03:52:25.744Z,9.50
2023-04-08T03:54:53.798Z,9.50
2023-04-08T03:57:22.321Z,9.50
2023-04-08T03:59:50.384Z,9.40
2023-04-08T04:02:19.017Z,9.40
2023-04-08T04:04:47.707Z,9.30
2023-04-08T04:07:16.495Z,9.30
2023-04-08T04:09:46.631Z,9.20
2023-04-08T04:12:14.700Z,9.20
2023-04-08T04:14:43.218Z,9.20
2023-04-08T04:17:11.760Z,9.20
2023-04-08T04:19:40.294Z,9.10
2023-04-08T04:22:08.409Z,9.10
2023-04-08T04:24:36.946Z,9.00
2023-04-08T04:27:06.411Z,9.00
2023-04-08T04:29:34.953Z,9.00
2023-04-08T04:32:03.014Z,8.90
2023-04-08T04:34:31.605Z,8.90
2023-04-08T04:36:59.648Z,8.90
2023-04-08T04:39:28.235Z,8.80
2023-04-08T04:41:56.814Z,8.80
2023-04-08T04:44:26.282Z,8.80
2023-04-08T04:46:54.883Z,8.80
2023-04-08T04:49:23.529Z,8.80
2023-04-08T04:51:52.140Z,8.80
2023-04-08T04:54:22.000Z,8.70
2023-04-08T04:56:50.059Z,8.70
2023-04-08T04:59:18.599Z,8.70
2023-04-08T05:01:48.127Z,8.70
2023-04-08T05:04:17.033Z,8.70
2023-04-08T05:06:45.127Z,8.70
2023-04-08T05:09:13.671Z,8.70
2023-04-08T05:11:41.779Z,8.70
2023-04-08T05:14:09.896Z,8.70
2023-04-08T05:16:38.862Z,8.70
2023-04-08T05:19:08.409Z,8.70
2023-04-08T05:21:36.924Z,8.70
2023-04-08T05:24:05.115Z,8.70
2023-04-08T05:26:33.670Z,8.70
2023-04-08T05:29:01.716Z,8.70
2023-04-08T05:31:30.700Z,8.80
2023-04-08T05:33:58.768Z,8.80
2023-04-08T05:36:28.609Z,8.80
2023-04-08T05:38:57.153Z,8.80
2023-04-08T05:41:25.682Z,8.90
2023-04-08T05:43:54.197Z,8.80
2023-04-08T05:46:22.334Z,8.90
2023-04-08T05:48:51.332Z,8.90
2023-04-08T05:51:20.025Z,9.00
2023-04-08T05:53:49.956Z,9.00
2023-04-08T05:56:17.999Z,9.00
2023-04-08T05:58:47.181Z,9.00
2023-04-08T06:01:15.849Z,9.10
2023-04-08T06:03:44.667Z,9.10
2023-04-08T06:06:13.758Z,9.10
2023-04-08T06:08:42.378Z,9.10
2023-04-08T06:11:11.941Z,9.20
2023-04-08T06:13:40.008Z,9.20
2023-04-08T06:16:18.102Z,10.70
2023-04-08T06:18:48.222Z,9.30
2023-04-08T06:21:17.393Z,9.30
2023-04-08T06:23:45.962Z,9.30
2023-04-08T06:26:16.215Z,9.40
2023-04-08T06:28:44.715Z,9.40
2023-04-08T06:31:12.778Z,9.40
2023-04-08T06:33:41.315Z,9.50
2023-04-08T06:36:10.326Z,9.50
2023-04-08T06:38:38.388Z,9.50
2023-04-08T06:41:07.146Z,9.60
2023-04-08T06:43:38.199Z,9.60
2023-04-08T06:46:06.580Z,9.60
2023-04-08T06:48:34.691Z,9.70
2023-04-08T06:51:02.785Z,9.70
2023-04-08T06:53:32.772Z,9.70
2023-04-08T06:56:01.450Z,9.80
2023-04-08T06:58:29.878Z,9.80
2023-04-08T07:01:01.708Z,9.80
2023-04-08T07:03:29.951Z,9.80
2023-04-08T07:05:58.070Z,9.90
2023-04-08T07:08:26.594Z,9.90
2023-04-08T07:10:54.616Z,9.90
2023-04-08T07:13:23.165Z,9.90
2023-04-08T07:15:51.212Z,9.90
2023-04-08T07:18:22.180Z,9.90
2023-04-08T07:20:53.087Z,9.90
2023-04-08T07:23:21.969Z,9.90
2023-04-08T07:25:50.616Z,9.90
2023-04-08T07:28:18.682Z,9.90
2023-04-08T07:30:47.279Z,9.90
2023-04-08T07:33:16.432Z,9.90
2023-04-08T07:35:46.393Z,9.90
2023-04-08T07:38:14.456Z,9.90
2023-04-08T07:40:42.979Z,9.90
2023-04-08T07:43:11.250Z,9.90
2023-04-08T07:45:39.780Z,9.90
2023-04-08T07:48:08.359Z,9.90
2023-04-08T07:51:08.127Z,9.90
2023-04-08T07:53:27.838Z,9.90
2023-04-08T07:55:56.421Z,9.90
2023-04-08T07:58:25.795Z,9.90
2023-04-08T08:00:54.112Z,9.90
2023-04-08T08:03:22.854Z,9.90
2023-04-08T08:05:51.569Z,9.90
2023-04-08T08:08:20.130Z,9.90
2023-04-08T08:10:49.531Z,9.90
2023-04-08T08:13:21.678Z,9.90
2023-04-08T08:15:54.540Z,9.90
2023-04-08T08:18:23.215Z,9.90
2023-04-08T08:20:51.278Z,9.90
2023-04-08T08:23:19.837Z,9.90
2023-04-08T08:25:49.233Z,9.90
2023-04-08T08:28:17.765Z,9.90
2023-04-08T08:30:46.416Z,10.00
2023-04-08T08:33:14.955Z,10.00
2023-04-08T08:35:43.032Z,10.00
2023-04-08T08:38:13.248Z,9.90
2023-04-08T08:40:41.450Z,10.00
2023-04-08T08:43:11.845Z,10.00
2023-04-08T08:45:41.915Z,10.00
2023-04-08T08:48:11.188Z,10.00
2023-04-08T08:50:39.376Z,10.00
2023-04-08T08:53:07.586Z,10.00
2023-04-08T08:58:11.767Z,10.00
2023-04-08T09:00:42.360Z,10.00
2023-04-08T09:03:21.731Z,10.00
2023-04-08T09:05:51.135Z,10.00
2023-04-08T09:08:27.083Z,10.00
2023-04-08T09:10:55.771Z,10.00
2023-04-08T09:13:25.683Z,10.10
2023-04-08T09:16:05.528Z,10.10
2023-04-08T09:18:34.944Z,10.10
2023-04-08T09:21:03.788Z,10.10
2023-04-08T09:23:50.278Z,10.10
2023-04-08T09:26:22.270Z,10.20
2023-04-08T09:29:14.348Z,10.20
2023-04-08T09:31:55.256Z,10.20
2023-04-08T09:34:23.949Z,10.30
2023-04-08T09:36:52.848Z,10.30
2023-04-08T09:39:20.943Z,10.30
2023-04-08T09:41:50.652Z,10.30
2023-04-08T09:44:25.070Z,10.30
2023-04-08T09:47:03.436Z,10.40
2023-04-08T09:49:39.436Z,10.40
2023-04-08T09:52:11.478Z,10.40
2023-04-08T09:54:45.470Z,10.40
2023-04-08T09:57:19.373Z,10.40
2023-04-08T09:59:53.874Z,10.40
2023-04-08T10:02:30.820Z,10.50
2023-04-08T10:05:04.946Z,10.50
2023-04-08T10:07:36.325Z,10.50
2023-04-08T10:10:05.475Z,10.40
2023-04-08T10:12:33.790Z,10.50
2023-04-08T10:15:28.598Z,10.50
2023-04-08T10:17:57.966Z,10.50
2023-04-08T10:20:46.422Z,10.50
2023-04-08T10:23:15.762Z,10.50
2023-04-08T10:25:45.548Z,10.50
2023-04-08T10:28:27.244Z,10.40
2023-04-08T10:30:58.181Z,10.40
2023-04-08T10:33:34.589Z,10.40
2023-04-08T10:36:11.905Z,10.40
2023-04-08T10:38:42.710Z,10.40
2023-04-08T10:41:14.375Z,10.40
2023-04-08T10:43:42.566Z,10.50
2023-04-08T10:46:13.648Z,10.50
2023-04-08T10:48:42.159Z,10.50
2023-04-08T10:51:10.402Z,10.60
2023-04-08T10:53:40.822Z,10.60
2023-04-08T10:56:11.611Z,10.60
2023-04-08T10:58:49.919Z,10.70
2023-04-08T11:01:21.359Z,10.70
2023-04-08T11:03:51.035Z,10.80
2023-04-08T11:06:19.560Z,10.80
2023-04-08T11:08:48.713Z,10.90
2023-04-08T11:11:16.947Z,10.90
2023-04-08T11:13:53.197Z,11.00
2023-04-08T11:16:23.838Z,11.00
2023-04-08T11:18:53.109Z,11.00
2023-04-08T11:21:22.293Z,11.10
2023-04-08T11:23:51.778Z,11.10
2023-04-08T11:26:21.544Z,11.10
2023-04-08T11:28:52.197Z,11.20
2023-04-08T11:31:24.127Z,11.20
2023-04-08T11:33:57.236Z,11.20
2023-04-08T11:36:26.044Z,11.30
2023-04-08T11:38:56.595Z,11.30
2023-04-08T11:41:24.836Z,11.40
2023-04-08T11:43:56.992Z,11.40
2023-04-08T11:46:25.898Z,11.50
2023-04-08T11:49:03.831Z,11.50
2023-04-08T11:51:32.111Z,11.60
2023-04-08T11:54:00.687Z,11.60
2023-04-08T11:56:30.531Z,11.60
2023-04-08T11:58:59.072Z,11.60
2023-04-08T12:01:27.775Z,11.60
2023-04-08T12:04:03.873Z,11.70
2023-04-08T12:06:32.001Z,11.70
2023-04-08T12:09:00.067Z,11.70
2023-04-08T12:11:28.628Z,11.70
2023-04-08T12:13:57.403Z,11.80
2023-04-08T12:16:26.039Z,11.80
2023-04-08T12:18:54.182Z,11.80
2023-04-08T12:21:23.650Z,11.80
2023-04-08T12:23:52.465Z,11.80
2023-04-08T12:26:21.450Z,11.80
2023-04-08T12:28:49.511Z,11.80
2023-04-08T12:31:18.215Z,11.80
2023-04-08T12:33:46.313Z,11.80
2023-04-08T12:36:14.512Z,11.80
2023-04-08T12:38:44.489Z,11.80
2023-04-08T12:41:12.572Z,11.80
2023-04-08T12:43:41.152Z,11.90
2023-04-08T12:46:09.669Z,11.90
2023-04-08T12:48:38.009Z,11.90
2023-04-08T12:51:06.892Z,12.00
2023-04-08T12:53:34.926Z,12.10
2023-04-08T12:56:06.016Z,12.10
2023-04-08T12:58:34.153Z,12.20
2023-04-08T13:01:02.709Z,12.20
2023-04-08T13:03:32.415Z,12.20
2023-04-08T13:06:00.651Z,12.30
2023-04-08T13:08:29.683Z,12.30
2023-04-08T13:10:58.257Z,12.30
2023-04-08T13:13:28.221Z,12.30
2023-04-08T13:15:57.589Z,12.30
2023-04-08T13:18:26.298Z,12.30
2023-04-08T13:20:54.905Z,12.30
2023-04-08T13:23:23.017Z,12.30
2023-04-08T13:25:52.121Z,12.30
2023-04-08T13:28:20.627Z,12.20
2023-04-08T13:30:50.010Z,12.20
2023-04-08T13:33:18.790Z,12.20
2023-04-08T13:35:46.911Z,12.20
2023-04-08T13:38:15.063Z,12.20
2023-04-08T13:40:44.314Z,12.20
2023-04-08T13:43:13.155Z,12.10
2023-04-08T13:45:41.920Z,12.10
2023-04-08T13:48:11.668Z,12.10
2023-04-08T13:50:40.413Z,12.10
2023-04-08T13:53:08.512Z,12.10
2023-04-08T13:55:37.042Z,12.10
2023-04-08T13:58:11.278Z,12.10
2023-04-08T14:00:45.443Z,12.10
2023-04-08T14:03:15.495Z,12.10
2023-04-08T14:05:43.565Z,12.10
2023-04-08T14:08:12.573Z,12.10
2023-04-08T14:10:42.079Z,12.20
2023-04-08T14:13:11.092Z,12.20
2023-04-08T14:15:39.609Z,12.30
2023-04-08T14:18:10.100Z,12.30
2023-04-08T14:20:40.710Z,12.40
2023-04-08T14:23:08.732Z,12.40
2023-04-08T14:25:37.309Z,12.40
2023-04-08T14:28:05.422Z,12.50
2023-04-08T14:30:34.338Z,12.50
2023-04-08T14:33:02.779Z,12.60
2023-04-08T14:35:31.378Z,12.70
2023-04-08T14:38:01.263Z,12.80
2023-04-08T14:40:29.830Z,12.90
2023-04-08T14:42:58.352Z,13.00
2023-04-08T14:45:27.074Z,13.10
2023-04-08T14:47:55.591Z,13.10
2023-04-08T14:50:23.843Z,13.20
2023-04-08T14:52:53.710Z,13.30
2023-04-08T14:55:23.152Z,13.40
2023-04-08T14:57:51.855Z,13.40
2023-04-08T15:00:20.351Z,13.50
2023-04-08T15:02:48.510Z,13.60
2023-04-08T15:05:17.258Z,13.70
2023-04-08T15:07:47.038Z,13.80
2023-04-08T15:10:16.193Z,13.90
2023-04-08T15:12:46.783Z,14.00
2023-04-08T15:15:15.404Z,14.20
2023-04-08T15:17:44.065Z,14.20
2023-04-08T15:20:13.915Z,14.30
2023-04-08T15:22:42.199Z,14.40
2023-04-08T15:25:11.735Z,14.40
2023-04-08T15:27:39.834Z,14.40
2023-04-08T15:30:12.307Z,14.30
2023-04-08T15:32:41.435Z,14.30
2023-04-08T15:35:11.402Z,14.30
2023-04-08T15:37:39.430Z,14.20
2023-04-08T15:40:09.026Z,14.20
2023-04-08T15:42:37.536Z,14.20
2023-04-08T15:45:06.290Z,14.10
2023-04-08T15:47:36.357Z,14.10
2023-04-08T15:50:04.852Z,14.00
2023-04-08T15:52:35.656Z,14.00
2023-04-08T15:55:03.757Z,13.90
2023-04-08T15:57:32.982Z,13.90
2023-04-08T16:00:01.552Z,13.80
2023-04-08T16:02:29.790Z,13.80
2023-04-08T16:04:59.840Z,13.70
2023-04-08T16:07:27.905Z,13.70
2023-04-08T16:09:55.951Z,13.70
2023-04-08T16:12:25.479Z,13.70
2023-04-08T16:14:53.620Z,13.60
2023-04-08T16:17:21.996Z,13.60
2023-04-08T16:19:52.221Z,13.60
2023-04-08T16:22:21.691Z,13.60
2023-04-08T16:24:50.271Z,13.50
2023-04-08T16:27:18.321Z,13.50
2023-04-08T16:29:46.755Z,13.50
2023-04-08T16:32:15.356Z,13.40
2023-04-08T16:34:43.883Z,13.40
2023-04-08T16:37:14.368Z,13.40
2023-04-08T16:39:44.683Z,13.40
2023-04-08T16:42:12.746Z,13.30
2023-04-08T16:44:41.154Z,13.30
2023-04-08T16:47:09.243Z,13.30
2023-04-08T16:49:37.743Z,13.30
2023-04-08T16:52:06.473Z,13.30
2023-04-08T16:54:34.531Z,13.20
2023-04-08T16:57:04.464Z,13.20
2023-04-08T16:59:33.015Z,13.20
2023-04-08T17:02:01.148Z,13.20
2023-04-08T17:04:29.779Z,13.20
2023-04-08T17:06:58.244Z,13.20
2023-04-08T17:09:27.310Z,13.20
2023-04-08T17:11:56.052Z,13.10
2023-04-08T17:14:27.214Z,13.10
2023-04-08T17:16:55.776Z,13.10
2023-04-08T17:19:24.057Z,13.10
2023-04-08T17:21:52.100Z,14.90
2023-04-08T17:24:21.078Z,13.00
2023-04-08T17:26:49.336Z,13.00
2023-04-08T17:29:17.483Z,13.00
2023-04-08T17:31:47.436Z,13.00
2023-04-08T17:34:16.018Z,13.00
2023-04-08T17:36:44.724Z,12.90
2023-04-08T17:39:12.804Z,12.90
2023-04-08T17:41:42.922Z,12.90
2023-04-08T17:44:12.063Z,12.80
2023-04-08T17:46:40.578Z,12.80
2023-04-08T17:49:11.287Z,12.80
2023-04-08T17:51:39.853Z,12.70
2023-04-08T17:54:08.173Z,12.70
2023-04-08T17:56:36.798Z,12.70
2023-04-08T17:59:04.868Z,12.70
2023-04-08T18:01:33.469Z,12.60
2023-04-08T18:04:01.903Z,12.60
2023-04-08T18:06:31.987Z,12.60
2023-04-08T18:09:00.493Z,12.60
2023-04-08T18:11:29.012Z,12.60
2023-04-08T18:13:57.581Z,12.50
2023-04-08T18:16:26.136Z,12.50
2023-04-08T18:18:54.666Z,12.50
2023-04-08T18:21:23.195Z,12.40
2023-04-08T18:23:53.282Z,12.40
2023-04-08T18:26:21.896Z,12.40
2023-04-08T18:28:49.912Z,12.40
2023-04-08T18:31:18.464Z,12.40
2023-04-08T18:33:46.578Z,12.40
2023-04-08T18:36:14.929Z,12.40
2023-04-08T18:38:45.258Z,12.30
2023-04-08T18:41:14.632Z,12.30
2023-04-08T18:43:42.767Z,12.30
2023-04-08T18:46:11.382Z,12.30
2023-04-08T18:48:40.917Z,12.30
2023-04-08T18:51:09.521Z,12.30
2023-04-08T18:53:38.945Z,12.20
2023-04-08T18:56:07.670Z,12.20
2023-04-08T18:58:37.407Z,12.20
2023-04-08T19:01:09.700Z,12.20
2023-04-08T19:03:38.217Z,11.00
2023-04-08T19:06:07.946Z,12.10
2023-04-08T19:08:36.129Z,12.10
2023-04-08T19:11:04.372Z,12.10
2023-04-08T19:13:33.137Z,12.10
2023-04-08T19:16:02.602Z,12.00
2023-04-08T19:18:31.733Z,12.00
2023-04-08T19:21:02.020Z,12.00
2023-04-08T19:23:30.047Z,12.00
2023-04-08T19:25:58.618Z,12.00
2023-04-08T19:28:26.732Z,11.90
2023-04-08T19:30:55.587Z,11.90
2023-04-08T19:33:27.431Z,11.90
2023-04-08T19:35:56.205Z,11.90
2023-04-08T19:38:24.612Z,11.90
2023-04-08T19:40:53.116Z,11.90
2023-04-08T19:43:21.171Z,11.90
2023-04-08T19:45:54.034Z,11.90
2023-04-08T19:48:22.176Z,11.90
2023-04-08T19:50:52.317Z,11.90
2023-04-08T19:53:20.484Z,11.90
2023-04-08T19:55:50.027Z,11.90
2023-04-08T19:58:18.438Z,11.80
2023-04-08T20:00:46.935Z,11.80
2023-04-08T20:03:15.194Z,11.80
2023-04-08T20:05:43.984Z,11.80
2023-04-08T20:08:14.146Z,11.80
2023-04-08T20:10:43.360Z,11.80
2023-04-08T20:13:11.473Z,11.80
2023-04-08T20:15:40.040Z,11.80
2023-04-08T20:18:08.134Z,11.70
2023-04-08T20:20:36.581Z,11.70
2023-04-08T20:23:04.768Z,11.70
2023-04-08T20:25:34.675Z,11.70
2023-04-08T20:28:03.558Z,11.60
2023-04-08T20:30:32.154Z,11.60
2023-04-08T20:33:01.149Z,11.60
2023-04-08T20:35:29.702Z,11.60
2023-04-08T20:37:58.238Z,11.50
2023-04-08T20:40:26.618Z,11.50
2023-04-08T20:42:56.061Z,11.50
2023-04-08T20:45:24.799Z,11.50
2023-04-08T20:47:54.137Z,11.50
2023-04-08T20:50:22.677Z,11.50
2023-04-08T20:52:52.416Z,11.50
2023-04-08T20:55:20.751Z,11.50
2023-04-08T20:57:50.298Z,11.40
2023-04-08T21:00:20.522Z,11.40
2023-04-08T21:02:50.463Z,11.40
2023-04-08T21:05:18.738Z,11.40
2023-04-08T21:07:47.264Z,11.40
2023-04-08T21:10:17.398Z,11.40
2023-04-08T21:12:46.222Z,11.40
2023-04-08T21:15:15.727Z,11.40
2023-04-08T21:17:45.251Z,11.30
2023-04-08T21:20:14.007Z,11.30
2023-04-08T21:22:42.080Z,11.30
2023-04-08T21:25:10.510Z,11.30
2023-04-08T21:27:40.781Z,11.30
2023-04-08T21:30:10.011Z,11.30
2023-04-08T21:32:38.589Z,11.30
2023-04-08T21:35:08.654Z,11.30
2023-04-08T21:37:36.694Z,11.30
2023-04-08T21:40:05.657Z,11.30
2023-04-08T21:42:33.686Z,11.30
2023-04-08T21:45:02.300Z,11.20
2023-04-08T21:47:31.951Z,11.30
2023-04-08T21:50:00.727Z,11.30
2023-04-08T21:52:31.991Z,11.20
2023-04-08T21:55:00.180Z,11.20
2023-04-08T21:57:28.268Z,11.20
2023-04-08T21:59:56.974Z,11.20
2023-04-08T22:02:25.725Z,11.20
2023-04-08T22:04:53.869Z,11.20
2023-04-08T22:07:22.442Z,11.20
2023-04-08T22:09:51.858Z,11.20
2023-04-08T22:12:20.396Z,11.20
2023-04-08T22:14:48.423Z,11.10
2023-04-08T22:17:16.964Z,11.10
2023-04-08T22:19:45.038Z,11.10
2023-04-08T22:22:13.561Z,11.10
2023-04-08T22:24:41.636Z,11.10
2023-04-08T22:27:11.565Z,11.10
2023-04-08T22:29:39.569Z,11.10
2023-04-08T22:32:08.360Z,11.10
2023-04-08T22:34:37.842Z,11.10
2023-04-08T22:37:05.891Z,11.10
2023-04-08T22:39:34.594Z,11.10
2023-04-08T22:42:03.224Z,11.10
2023-04-08T22:44:33.122Z,11.00
2023-04-08T22:47:01.160Z,11.00
2023-04-08T22:49:29.745Z,11.00
2023-04-08T22:51:57.825Z,11.00
2023-04-08T22:54:26.613Z,11.00
2023-04-08T22:56:55.139Z,11.00
2023-04-08T22:59:23.177Z,11.00
2023-04-08T23:01:53.265Z,11.00
2023-04-08T23:04:21.904Z,11.00
2023-04-08T23:06:49.959Z,11.00
2023-04-08T23:09:18.512Z,11.00
2023-04-08T23:11:46.573Z,10.90
2023-04-08T23:14:15.089Z,11.00
2023-04-08T23:16:43.120Z,11.00
2023-04-08T23:19:13.032Z,11.00
2023-04-08T23:21:41.969Z,11.00
2023-04-08T23:24:09.997Z,11.00
2023-04-08T23:26:38.534Z,11.00
2023-04-08T23:29:06.579Z,10.90
2023-04-08T23:31:34.949Z,11.00
2023-04-08T23:34:03.568Z,10.90
2023-04-08T23:36:35.972Z,10.90
2023-04-08T23:39:04.636Z,10.90
2023-04-08T23:41:32.683Z,10.90
2023-04-08T23:44:01.220Z,10.90
2023-04-08T23:46:29.297Z,10.80
2023-04-08T23:48:57.390Z,10.80
2023-04-08T23:51:26.384Z,10.80
2023-04-08T23:53:55.800Z,10.80
2023-04-08T23:56:24.338Z,10.80
2023-04-08T23:58:52.546Z,10.80
